createdAt,value
2019-05-25T00:01:24.967Z,94808.06
2019-05-25T00:03:54.477Z,94804.38
2019-05-25T00:06:23.972Z,94801.80
2019-05-25T00:08:53.520Z,94801.52
2019-05-25T00:11:23.145Z,94798.27
2019-05-25T00:13:52.648Z,94800.72
2019-05-25T00:16:22.187Z,94797.26
2019-05-25T00:18:51.667Z,94795.49
2019-05-25T00:21:21.178Z,94798.62
2019-05-25T00:24:12.111Z,94800.07
2019-05-25T00:26:35.266Z,94766.09
2019-05-25T00:29:04.758Z,94805.94
2019-05-25T00:31:34.260Z,94805.44
2019-05-25T00:34:03.731Z,94802.20
2019-05-25T00:36:33.198Z,94803.51
2019-05-25T00:39:02.693Z,94806.77
2019-05-25T00:41:32.166Z,94802.19
2019-05-25T00:44:01.700Z,94797.62
2019-05-25T00:46:31.142Z,94798.25
2019-05-25T00:49:01.362Z,94797.11
2019-05-25T00:51:30.839Z,94801.83
2019-05-25T00:54:00.327Z,94792.70
2019-05-25T00:56:29.816Z,94795.02
2019-05-25T00:58:59.308Z,94790.42
2019-05-25T01:01:28.803Z,94789.78
2019-05-25T01:03:58.261Z,94793.34
2019-05-25T01:06:27.763Z,94787.81
2019-05-25T01:08:57.237Z,94784.70
2019-05-25T01:11:26.842Z,94787.64
2019-05-25T01:13:56.272Z,94790.41
2019-05-25T01:16:27.000Z,94789.27
2019-05-25T01:18:56.493Z,94791.89
2019-05-25T01:21:25.983Z,94789.27
2019-05-25T01:23:55.483Z,94782.10
2019-05-25T01:26:25.004Z,94787.96
2019-05-25T01:28:55.633Z,94791.55
2019-05-25T01:31:25.113Z,94783.08
2019-05-25T01:33:54.569Z,94793.69
2019-05-25T01:36:24.062Z,94788.63
2019-05-25T01:38:53.552Z,94795.17
2019-05-25T01:41:23.033Z,94788.80
2019-05-25T01:43:52.510Z,94792.70
2019-05-25T01:46:21.995Z,94796.94
2019-05-25T01:48:51.607Z,94793.34
2019-05-25T01:51:40.430Z,94795.61
2019-05-25T01:54:09.927Z,94795.92
2019-05-25T01:56:39.414Z,94788.56
2019-05-25T01:59:28.238Z,94789.49
2019-05-25T02:01:57.731Z,94791.27
2019-05-25T02:04:27.205Z,94794.52
2019-05-25T02:06:56.712Z,94795.35
2019-05-25T02:09:27.437Z,94794.22
2019-05-25T02:11:56.904Z,94797.47
2019-05-25T02:14:26.393Z,94793.08
2019-05-25T02:16:55.890Z,94790.63
2019-05-25T02:19:25.379Z,94795.20
2019-05-25T02:21:54.868Z,94794.38
2019-05-25T02:24:24.366Z,94798.64
2019-05-25T02:26:53.897Z,94796.83
2019-05-25T02:29:23.367Z,94796.30
2019-05-25T02:31:52.838Z,94790.39
2019-05-25T02:34:22.395Z,94788.30
2019-05-25T02:36:51.877Z,94795.76
2019-05-25T02:39:21.380Z,94788.72
2019-05-25T02:41:50.846Z,94788.27
2019-05-25T02:44:20.381Z,94785.18
2019-05-25T02:46:49.877Z,94784.48
2019-05-25T02:49:19.375Z,94784.90
2019-05-25T02:51:48.853Z,94783.59
2019-05-25T02:54:18.356Z,94781.33
2019-05-25T02:56:47.853Z,94786.55
2019-05-25T02:59:17.338Z,94785.55
2019-05-25T03:01:46.826Z,94786.52
2019-05-25T03:04:16.892Z,94792.38
2019-05-25T03:06:46.658Z,94791.53
2019-05-25T03:09:18.300Z,94791.70
2019-05-25T03:11:49.393Z,94799.52
2019-05-25T03:14:19.820Z,94791.80
2019-05-25T03:16:49.321Z,94787.09
2019-05-25T03:19:18.834Z,94786.06
2019-05-25T03:24:56.097Z,94678.09
2019-05-25T03:27:25.600Z,94794.19
2019-05-25T03:29:55.060Z,94798.72
2019-05-25T03:32:24.549Z,94797.59
2019-05-25T03:34:54.040Z,94802.98
2019-05-25T03:37:23.536Z,94800.33
2019-05-25T03:39:53.037Z,94802.41
2019-05-25T03:42:22.510Z,94798.51
2019-05-25T03:44:52.056Z,94792.85
2019-05-25T03:47:21.545Z,94794.55
2019-05-25T03:49:51.028Z,94803.24
2019-05-25T03:52:20.492Z,94802.77
2019-05-25T03:54:49.978Z,94800.67
2019-05-25T03:57:19.473Z,94807.84
2019-05-25T03:59:48.950Z,94805.85
2019-05-25T04:02:18.451Z,94807.02
2019-05-25T04:04:47.928Z,94803.32
2019-05-25T04:07:17.414Z,94806.10
2019-05-25T04:09:46.894Z,94802.41
2019-05-25T04:12:16.399Z,94797.84
2019-05-25T04:14:45.893Z,94796.88
2019-05-25T04:17:15.389Z,94809.95
2019-05-25T04:19:44.878Z,94801.86
2019-05-25T04:22:14.350Z,94812.70
2019-05-25T04:24:43.849Z,94814.56
2019-05-25T04:27:13.321Z,94811.20
2019-05-25T04:29:44.089Z,94816.02
2019-05-25T04:32:13.596Z,94810.34
2019-05-25T04:34:43.074Z,94806.77
2019-05-25T04:37:12.564Z,94801.38
2019-05-25T04:39:42.061Z,94801.38
2019-05-25T04:42:12.614Z,94798.56
2019-05-25T04:44:42.103Z,94799.41
2019-05-25T04:47:26.080Z,94796.36
2019-05-25T04:49:42.800Z,94796.91
2019-05-25T04:52:12.341Z,94796.38
2019-05-25T04:54:41.835Z,94795.11
2019-05-25T04:57:11.357Z,94794.25
2019-05-25T04:59:40.841Z,94791.58
2019-05-25T05:02:10.322Z,94792.03
2019-05-25T05:04:39.828Z,94798.43
2019-05-25T05:07:09.950Z,94799.71
2019-05-25T05:09:39.437Z,94795.22
2019-05-25T05:12:08.942Z,94796.69
2019-05-25T05:14:38.433Z,94790.77
2019-05-25T05:17:07.937Z,94790.91
2019-05-25T05:19:38.238Z,94794.65
2019-05-25T05:22:07.721Z,94791.47
2019-05-25T05:24:37.234Z,94789.60
2019-05-25T05:27:06.725Z,94793.16
2019-05-25T05:29:55.547Z,94798.98
2019-05-25T05:32:27.885Z,94804.92
2019-05-25T05:34:56.325Z,94802.65
2019-05-25T05:37:26.624Z,94808.91
2019-05-25T05:39:57.302Z,94810.41
2019-05-25T05:45:49.079Z,94812.98
2019-05-25T05:48:21.190Z,94804.79
2019-05-25T05:50:52.966Z,94804.02
2019-05-25T05:53:23.966Z,94803.55
2019-05-25T05:55:53.473Z,94807.23
2019-05-25T05:58:22.998Z,94809.94
2019-05-25T06:00:52.475Z,94804.17
2019-05-25T06:03:21.934Z,94804.66
2019-05-25T06:05:51.421Z,94808.02
2019-05-25T06:08:20.907Z,94810.73
2019-05-25T06:10:50.418Z,94812.21
2019-05-25T06:13:19.936Z,94809.58
2019-05-25T06:15:49.430Z,94815.30
2019-05-25T06:18:18.924Z,94811.73
2019-05-25T06:20:48.428Z,94808.97
2019-05-25T06:23:17.984Z,94806.52
2019-05-25T06:25:47.480Z,94804.46
2019-05-25T06:28:22.098Z,94802.45
2019-05-25T06:30:49.427Z,94797.12
2019-05-25T06:33:18.940Z,94804.84
2019-05-25T06:35:48.426Z,94805.38
2019-05-25T06:38:17.942Z,94799.72
2019-05-25T06:40:47.507Z,94806.73
2019-05-25T06:43:16.999Z,94801.52
2019-05-25T06:45:46.499Z,94802.65
2019-05-25T06:48:15.989Z,94810.80
2019-05-25T06:50:45.466Z,94805.81
2019-05-25T06:53:14.958Z,94810.53
2019-05-25T06:55:45.118Z,94809.76
2019-05-25T06:58:14.663Z,94812.40
2019-05-25T07:00:45.213Z,94815.23
2019-05-25T07:03:14.684Z,94810.59
2019-05-25T07:05:44.242Z,94812.34
2019-05-25T07:08:13.781Z,94808.31
2019-05-25T07:10:43.275Z,94807.77
2019-05-25T07:13:13.064Z,94808.11
2019-05-25T07:15:42.558Z,94815.19
2019-05-25T07:18:12.034Z,94814.73
2019-05-25T07:20:41.593Z,94811.20
2019-05-25T07:23:11.073Z,94813.88
2019-05-25T07:25:40.561Z,94813.88
2019-05-25T07:28:10.078Z,94818.50
2019-05-25T07:30:39.715Z,94813.80
2019-05-25T07:33:09.268Z,94816.95
2019-05-25T07:35:38.749Z,94815.02
2019-05-25T07:38:08.241Z,94819.86
2019-05-25T07:40:37.731Z,94820.59
2019-05-25T07:43:07.239Z,94822.06
2019-05-25T07:45:37.809Z,94818.27
2019-05-25T07:48:07.287Z,94822.73
2019-05-25T07:50:36.779Z,94816.28
2019-05-25T07:53:06.264Z,94819.91
2019-05-25T07:55:35.781Z,94830.09
2019-05-25T07:58:16.700Z,94833.27
2019-05-25T08:00:36.636Z,94827.59
2019-05-25T08:03:06.131Z,94839.24
2019-05-25T08:05:35.665Z,94838.76
2019-05-25T08:08:05.634Z,94842.77
2019-05-25T08:10:35.238Z,94840.17
2019-05-25T08:13:04.743Z,94838.28
2019-05-25T08:15:34.287Z,94837.45
2019-05-25T08:18:03.780Z,94835.25
2019-05-25T08:20:33.245Z,94834.91
2019-05-25T08:23:02.732Z,94830.73
2019-05-25T08:25:32.222Z,94836.24
2019-05-25T08:28:01.713Z,94839.00
2019-05-25T08:30:31.205Z,94838.83
2019-05-25T08:33:00.685Z,94839.89
2019-05-25T08:35:30.234Z,94832.91
2019-05-25T08:37:59.725Z,94828.13
2019-05-25T08:40:29.213Z,94831.88
2019-05-25T08:42:58.691Z,94830.48
2019-05-25T08:45:28.192Z,94828.91
2019-05-25T08:47:57.701Z,94829.16
2019-05-25T08:50:37.852Z,94819.28
2019-05-25T08:52:58.492Z,94825.82
2019-05-25T08:55:28.129Z,94827.31
2019-05-25T08:57:57.653Z,94815.14
2019-05-25T09:00:27.193Z,94817.20
2019-05-25T09:02:56.661Z,94815.50
2019-05-25T09:05:26.171Z,94811.29
2019-05-25T09:07:55.687Z,94815.84
2019-05-25T09:10:25.297Z,94816.33
2019-05-25T09:12:55.374Z,94818.48
2019-05-25T09:15:24.964Z,94814.46
2019-05-25T09:17:54.465Z,94819.09
2019-05-25T09:20:23.960Z,94822.13
2019-05-25T09:22:53.439Z,94824.80
2019-05-25T09:25:22.941Z,94825.93
2019-05-25T09:27:52.409Z,94822.59
2019-05-25T09:30:22.625Z,94816.57
2019-05-25T09:32:52.188Z,94819.44
2019-05-25T09:35:21.661Z,94823.86
2019-05-25T09:37:51.132Z,94814.24
2019-05-25T09:40:20.865Z,94816.97
2019-05-25T09:42:50.506Z,94819.99
2019-05-25T09:45:20.223Z,94812.53
2019-05-25T09:47:49.705Z,94817.53
2019-05-25T09:50:20.056Z,94814.05
2019-05-25T09:52:49.553Z,94818.63
2019-05-25T09:55:19.241Z,94814.03
2019-05-25T09:57:48.734Z,94810.02
2019-05-25T10:00:20.288Z,94808.39
2019-05-25T10:02:49.881Z,94805.47
2019-05-25T10:05:19.636Z,94807.08
2019-05-25T10:07:49.132Z,94810.87
2019-05-25T10:10:18.948Z,94813.38
2019-05-25T10:12:48.429Z,94812.52
2019-05-25T10:15:18.089Z,94817.48
2019-05-25T10:17:47.566Z,94816.45
2019-05-25T10:20:17.482Z,94805.33
2019-05-25T10:22:46.972Z,94801.37
2019-05-25T10:25:17.493Z,94809.48
2019-05-25T10:28:06.331Z,94805.44
2019-05-25T10:30:35.979Z,94742.32
2019-05-25T10:33:05.553Z,94802.91
2019-05-25T10:35:35.049Z,94799.72
2019-05-25T10:38:23.877Z,94793.72
2019-05-25T10:41:12.697Z,94705.52
2019-05-25T10:43:42.213Z,94802.22
2019-05-25T10:46:11.704Z,94798.98
2019-05-25T10:48:41.184Z,94794.97
2019-05-25T10:51:10.677Z,94794.99
2019-05-25T10:53:40.158Z,94784.23
2019-05-25T10:56:09.652Z,94786.82
2019-05-25T10:58:39.121Z,94788.06
2019-05-25T11:01:08.621Z,94776.37
2019-05-25T11:03:38.107Z,94776.41
2019-05-25T11:06:07.681Z,94774.81
2019-05-25T11:08:37.166Z,94772.55
2019-05-25T11:11:06.619Z,94768.77
2019-05-25T11:13:36.110Z,94763.15
2019-05-25T11:16:05.678Z,94761.88
2019-05-25T11:18:35.235Z,94756.62
2019-05-25T11:21:04.729Z,94759.30
2019-05-25T11:23:34.223Z,94759.73
2019-05-25T11:26:03.713Z,94764.30
2019-05-25T11:28:33.204Z,94757.61
2019-05-25T11:31:02.812Z,94755.92
2019-05-25T11:33:32.317Z,94753.43
2019-05-25T11:36:01.877Z,94742.97
2019-05-25T11:38:31.358Z,94741.56
2019-05-25T11:41:00.863Z,94740.84
2019-05-25T11:43:49.690Z,94739.47
2019-05-25T11:46:31.747Z,94740.49
2019-05-25T11:49:01.270Z,94736.75
2019-05-25T11:51:30.783Z,94736.89
2019-05-25T11:54:00.278Z,94735.26
2019-05-25T11:56:29.782Z,94738.65
2019-05-25T11:58:59.269Z,94732.63
2019-05-25T12:01:28.761Z,94736.89
2019-05-25T12:03:58.251Z,94728.31
2019-05-25T12:06:27.745Z,94735.52
2019-05-25T12:08:57.237Z,94729.31
2019-05-25T12:11:26.710Z,94720.16
2019-05-25T12:13:56.223Z,94722.76
2019-05-25T12:16:25.704Z,94724.48
2019-05-25T12:18:55.209Z,94723.22
2019-05-25T12:21:24.705Z,94724.56
2019-05-25T12:23:54.211Z,94720.25
2019-05-25T12:26:23.702Z,94716.22
2019-05-25T12:28:53.187Z,94712.37
2019-05-25T12:31:22.694Z,94711.91
2019-05-25T12:33:52.175Z,94709.80
2019-05-25T12:36:21.641Z,94710.57
2019-05-25T12:38:51.142Z,94706.81
2019-05-25T12:41:20.701Z,94713.82
2019-05-25T12:43:50.252Z,94702.54
2019-05-25T12:46:19.749Z,94709.48
2019-05-25T12:48:49.245Z,94714.56
2019-05-25T12:51:18.750Z,94710.18
2019-05-25T12:53:48.251Z,94708.09
2019-05-25T12:56:17.771Z,94708.38
2019-05-25T12:58:50.016Z,94709.52
2019-05-25T13:01:18.549Z,94706.62
2019-05-25T13:03:48.058Z,94707.20
2019-05-25T13:06:18.336Z,94714.09
2019-05-25T13:08:48.000Z,94712.55
2019-05-25T13:11:17.506Z,94716.48
2019-05-25T13:13:47.024Z,94717.22
2019-05-25T13:16:16.526Z,94721.34
2019-05-25T13:18:46.007Z,94721.57
2019-05-25T13:21:16.237Z,94720.86
2019-05-25T13:23:45.728Z,94726.11
2019-05-25T13:26:15.214Z,94725.08
2019-05-25T13:28:44.710Z,94721.81
2019-05-25T13:31:14.213Z,94723.92
2019-05-25T13:33:44.505Z,94731.62
2019-05-25T13:36:14.013Z,94735.45
2019-05-25T13:38:43.500Z,94736.87
2019-05-25T13:41:12.985Z,94744.26
2019-05-25T13:43:42.491Z,94745.70
2019-05-25T13:46:12.819Z,94745.35
2019-05-25T13:48:42.394Z,94754.05
2019-05-25T13:51:11.899Z,94763.77
2019-05-25T13:53:41.388Z,94759.34
2019-05-25T13:56:10.891Z,94759.59
2019-05-25T13:58:41.119Z,94767.16
2019-05-25T14:01:49.048Z,94769.63
2019-05-25T14:04:18.573Z,94776.22
2019-05-25T14:06:48.096Z,94791.02
2019-05-25T14:09:17.575Z,94797.70
2019-05-25T14:11:47.068Z,94798.16
2019-05-25T14:14:16.573Z,94804.66
2019-05-25T14:16:46.079Z,94801.45
2019-05-25T14:19:15.589Z,94806.98
2019-05-25T14:21:45.101Z,94797.19
2019-05-25T14:24:14.606Z,94792.48
2019-05-25T14:26:44.098Z,94787.66
2019-05-25T14:29:13.588Z,94786.97
2019-05-25T14:31:45.931Z,94768.41
2019-05-25T14:34:14.310Z,94771.92
2019-05-25T14:36:43.801Z,94771.97
2019-05-25T14:39:13.729Z,94772.00
2019-05-25T14:41:43.281Z,94765.23
2019-05-25T14:44:12.773Z,94767.66
2019-05-25T14:46:42.943Z,94772.92
2019-05-25T14:49:12.611Z,94775.44
2019-05-25T14:51:42.101Z,94770.84
2019-05-25T14:54:11.611Z,94773.50
2019-05-25T14:56:41.086Z,94764.50
2019-05-25T14:59:10.587Z,94767.52
2019-05-25T15:01:40.106Z,94773.31
2019-05-25T15:04:10.260Z,94770.73
2019-05-25T15:06:39.729Z,94770.16
2019-05-25T15:09:09.305Z,94771.70
2019-05-25T15:11:58.144Z,94775.08
2019-05-25T15:14:46.990Z,94774.98
2019-05-25T15:17:16.484Z,94777.76
2019-05-25T15:19:45.960Z,94785.80
2019-05-25T15:22:15.534Z,94793.83
2019-05-25T15:24:45.004Z,94800.33
2019-05-25T15:27:14.515Z,94803.87
2019-05-25T15:29:44.004Z,94805.94
2019-05-25T15:32:19.958Z,94797.98
2019-05-25T15:34:46.558Z,94801.84
2019-05-25T15:37:16.137Z,94797.64
2019-05-25T15:39:45.635Z,94799.58
2019-05-25T15:42:15.131Z,94796.69
2019-05-25T15:44:44.615Z,94802.67
2019-05-25T15:47:14.117Z,94801.56
2019-05-25T15:49:43.596Z,94802.23
2019-05-25T15:52:13.164Z,94808.54
2019-05-25T15:54:42.719Z,94809.16
2019-05-25T15:57:12.194Z,94807.78
2019-05-25T15:59:41.706Z,94805.36
2019-05-25T16:02:11.542Z,94810.02
2019-05-25T16:04:41.024Z,94822.62
2019-05-25T16:07:10.522Z,94826.95
2019-05-25T16:09:40.012Z,94829.13
2019-05-25T16:12:09.500Z,94816.55
2019-05-25T16:14:39.015Z,94817.41
2019-05-25T16:17:08.497Z,94822.84
2019-05-25T16:19:38.003Z,94819.27
2019-05-25T16:22:07.502Z,94814.81
2019-05-25T16:24:36.985Z,94818.86
2019-05-25T16:27:06.494Z,94822.33
2019-05-25T16:29:35.969Z,94826.41
2019-05-25T16:32:05.555Z,94829.53
2019-05-25T16:34:35.031Z,94833.14
2019-05-25T16:37:04.742Z,94833.64
2019-05-25T16:39:34.246Z,94841.43
2019-05-25T16:42:03.830Z,94845.27
2019-05-25T16:44:33.393Z,94850.45
2019-05-25T16:47:02.902Z,94863.17
2019-05-25T16:49:32.411Z,94878.50
2019-05-25T16:52:01.903Z,94876.83
2019-05-25T16:54:31.476Z,94881.23
2019-05-25T16:57:00.987Z,94882.38
2019-05-25T16:59:30.481Z,94879.77
2019-05-25T17:02:00.019Z,94877.53
2019-05-25T17:04:29.504Z,94869.59
2019-05-25T17:06:59.011Z,94868.81
2019-05-25T17:09:28.509Z,94872.56
2019-05-25T17:11:58.001Z,94873.21
2019-05-25T17:14:27.512Z,94872.48
2019-05-25T17:16:57.013Z,94876.23
2019-05-25T17:19:26.533Z,94881.73
2019-05-25T17:21:56.039Z,94875.70
2019-05-25T17:24:25.514Z,94888.17
2019-05-25T17:26:55.044Z,94888.86
2019-05-25T17:29:24.534Z,94888.57
2019-05-25T17:31:54.015Z,94885.26
2019-05-25T17:34:23.513Z,94884.93
2019-05-25T17:36:54.253Z,94885.60
2019-05-25T17:39:23.743Z,94884.88
2019-05-25T17:41:53.240Z,94886.58
2019-05-25T17:44:22.798Z,94878.80
2019-05-25T17:46:52.299Z,94885.67
2019-05-25T17:49:22.918Z,94879.52
2019-05-25T17:51:52.391Z,94880.00
2019-05-25T17:54:21.893Z,94883.98
2019-05-25T17:56:51.377Z,94882.54
2019-05-25T17:59:20.879Z,94883.12
2019-05-25T18:01:50.424Z,94884.54
2019-05-25T18:04:19.919Z,94886.01
2019-05-25T18:06:49.392Z,94889.02
2019-05-25T18:09:18.900Z,94887.16
2019-05-25T18:11:49.159Z,94887.36
2019-05-25T18:14:19.407Z,94898.23
2019-05-25T18:16:48.877Z,94902.82
2019-05-25T18:19:18.380Z,94902.31
2019-05-25T18:21:47.868Z,94910.73
2019-05-25T18:24:17.455Z,94917.55
2019-05-25T18:26:47.748Z,94925.63
2019-05-25T18:29:17.226Z,94923.25
2019-05-25T18:31:46.724Z,94927.27
2019-05-25T18:34:21.944Z,94923.59
2019-05-25T18:37:06.791Z,94934.41
2019-05-25T18:39:55.639Z,94934.22
2019-05-25T18:42:25.181Z,94943.68
2019-05-25T18:44:54.666Z,94947.99
2019-05-25T18:47:24.165Z,94957.69
2019-05-25T18:49:53.859Z,94970.45
2019-05-25T18:52:23.397Z,94975.32
2019-05-25T18:54:52.867Z,94969.30
2019-05-25T18:57:22.364Z,94967.80
2019-05-25T18:59:51.877Z,94970.45
2019-05-25T19:02:21.357Z,94977.66
2019-05-25T19:04:59.541Z,94977.38
2019-05-25T19:07:22.121Z,94980.41
2019-05-25T19:09:51.655Z,94981.24
2019-05-25T19:12:21.161Z,94992.22
2019-05-25T19:14:50.658Z,94989.52
2019-05-25T19:17:20.220Z,94998.88
2019-05-25T19:19:49.713Z,94992.83
2019-05-25T19:22:19.204Z,95004.38
2019-05-25T19:24:48.714Z,95007.34
2019-05-25T19:27:18.234Z,95006.41
2019-05-25T19:29:47.717Z,95006.41
2019-05-25T19:32:18.154Z,95014.78
2019-05-25T19:34:59.006Z,95011.94
2019-05-25T19:37:19.584Z,95016.13
2019-05-25T19:39:49.183Z,95016.11
2019-05-25T19:42:18.693Z,95021.19
2019-05-25T19:44:48.193Z,95025.16
2019-05-25T19:47:17.704Z,95020.17
2019-05-25T19:49:47.179Z,95022.31
2019-05-25T19:52:16.664Z,95025.41
2019-05-25T19:54:46.160Z,95030.98
2019-05-25T19:57:15.654Z,95027.36
2019-05-25T19:59:45.143Z,95029.23
2019-05-25T20:02:14.673Z,95030.80
2019-05-25T20:04:44.162Z,95030.98
2019-05-25T20:07:13.657Z,95030.03
2019-05-25T20:09:43.159Z,95036.47
2019-05-25T20:12:12.656Z,95041.17
2019-05-25T20:14:42.168Z,95045.13
2019-05-25T20:17:11.678Z,95054.55
2019-05-25T20:19:41.196Z,95058.80
2019-05-25T20:22:11.228Z,95061.80
2019-05-25T20:24:40.778Z,95060.41
2019-05-25T20:27:10.251Z,95066.33
2019-05-25T20:29:39.745Z,95069.45
2019-05-25T20:32:09.263Z,95074.02
2019-05-25T20:34:39.575Z,95077.16
2019-05-25T20:37:09.063Z,95082.30
2019-05-25T20:39:38.567Z,95083.62
2019-05-25T20:42:08.074Z,95088.84
2019-05-25T20:44:37.566Z,95090.06
2019-05-25T20:47:08.095Z,95088.31
2019-05-25T20:49:37.586Z,95090.70
2019-05-25T20:52:07.131Z,95090.69
2019-05-25T20:54:36.646Z,95086.23
2019-05-25T20:57:06.234Z,95092.28
2019-05-25T20:59:36.478Z,95092.37
2019-05-25T21:02:06.154Z,95092.45
2019-05-25T21:04:35.656Z,95102.32
2019-05-25T21:07:05.201Z,95098.35
2019-05-25T21:09:34.722Z,95099.54
2019-05-25T21:12:04.872Z,95094.27
2019-05-25T21:14:34.351Z,95097.40
2019-05-25T21:17:03.919Z,95104.09
2019-05-25T21:19:33.413Z,95099.42
2019-05-25T21:22:02.995Z,95092.47
2019-05-25T21:24:32.499Z,95097.00
2019-05-25T21:27:02.033Z,95092.43
2019-05-25T21:29:31.505Z,95094.81
2019-05-25T21:32:01.014Z,95095.38
2019-05-25T21:34:30.591Z,95094.48
2019-05-25T21:37:01.342Z,95099.08
2019-05-25T21:39:30.861Z,95101.64
2019-05-25T21:42:00.363Z,95103.84
2019-05-25T21:44:29.870Z,95101.00
2019-05-25T21:46:59.360Z,95098.00
2019-05-25T21:49:30.128Z,95101.92
2019-05-25T21:51:59.719Z,95101.92
2019-05-25T21:54:29.220Z,95098.33
2019-05-25T21:56:58.703Z,95104.00
2019-05-25T21:59:28.217Z,95099.10
2019-05-25T22:01:58.976Z,95099.94
2019-05-25T22:04:28.449Z,95097.60
2019-05-25T22:06:58.013Z,95095.13
2019-05-25T22:09:27.519Z,95095.13
2019-05-25T22:11:57.021Z,95094.78
2019-05-25T22:14:27.752Z,95092.97
2019-05-25T22:16:57.266Z,95092.64
2019-05-25T22:19:26.783Z,95086.95
2019-05-25T22:21:56.283Z,95082.28
2019-05-25T22:24:57.542Z,95086.95
2019-05-25T22:27:27.055Z,95077.58
2019-05-25T22:29:56.548Z,95084.04
2019-05-25T22:32:26.034Z,95089.07
2019-05-25T22:34:55.844Z,95085.65
2019-05-25T22:37:25.335Z,95087.09
2019-05-25T22:39:54.841Z,95091.03
2019-05-25T22:42:43.668Z,95084.23
2019-05-25T22:45:13.512Z,95085.41
2019-05-25T22:47:43.018Z,95087.49
2019-05-25T22:50:13.046Z,95087.69
2019-05-25T22:52:42.555Z,95080.53
2019-05-25T22:55:12.381Z,95077.45
2019-05-25T22:57:41.873Z,95080.55
2019-05-25T23:00:11.748Z,95075.88
2019-05-25T23:02:41.218Z,95075.97
2019-05-25T23:05:11.125Z,95074.53
2019-05-25T23:07:40.621Z,95072.85
2019-05-25T23:10:10.637Z,95073.84
2019-05-25T23:12:40.126Z,95074.83
2019-05-25T23:15:10.059Z,95070.16
2019-05-25T23:17:39.843Z,95070.02
2019-05-25T23:20:09.834Z,95068.44
2019-05-25T23:22:39.391Z,95066.34
2019-05-25T23:25:09.133Z,95069.86
2019-05-25T23:27:38.628Z,95073.43
2019-05-25T23:30:08.959Z,95077.80
2019-05-25T23:32:38.528Z,95082.41
2019-05-25T23:35:08.342Z,95083.25
2019-05-25T23:37:37.916Z,95082.16
2019-05-25T23:40:08.811Z,95081.80
2019-05-25T23:42:38.317Z,95073.55
2019-05-25T23:45:08.260Z,95086.26
2019-05-25T23:47:37.749Z,95072.92
2019-05-25T23:50:08.162Z,95076.59
2019-05-25T23:52:37.650Z,95070.05
2019-05-25T23:55:10.497Z,95066.66
2019-05-25T23:57:59.321Z,95064.28
